Terminal Aerodrome Forecast
Issued by NWS Pueblo, CO

Current Version | Previous Version | Text Only | Print | Product List | Glossary On
Versions: 1 2 3 4 5 6 7 8 9 10 11 12 13 14 15 16 17 18 19 20 21 22 23 24 25 26 27 28 29 30 31 32 33 34 35 36 37 38 39 40 41 42 43 44 45 46 47
000
FTUS45 KPUB 021720
TAFPUB
TAF
KPUB 021720Z 0218/0318 VRB06KT P6SM FEW100 SCT200
     FM021900 12010KT P6SM SCT080 BKN150
     FM022200 09015KT P6SM VCTS SCT070CB BKN100
     FM030300 VRB06KT P6SM SCT080 BKN150
     FM030700 VRB04KT P6SM FEW100 SCT150=

USA.gov is the U.S. government's official web portal to all federal, state and local government web resources and services.